sensor_id;sensor_type;location;lat;lon;timestamp;pressure;altitude;pressure_sealevel;temperature;humidity
77351;BME280;66420;50.246;14.320;2023-07-20T00:01:38;99096.81;;;18.74;66.82
77351;BME280;66420;50.246;14.320;2023-07-20T00:04:23;99109.75;;;18.67;67.11
77351;BME280;66420;50.246;14.320;2023-07-20T00:07:07;99107.78;;;18.67;67.48
77351;BME280;66420;50.246;14.320;2023-07-20T00:09:52;99100.78;;;18.77;65.82
77351;BME280;66420;50.246;14.320;2023-07-20T00:12:37;99109.13;;;18.77;66.69
77351;BME280;66420;50.246;14.320;2023-07-20T00:15:21;99112.91;;;18.65;67.08
77351;BME280;66420;50.246;14.320;2023-07-20T00:18:06;99126.59;;;18.54;66.77
77351;BME280;66420;50.246;14.320;2023-07-20T00:20:51;99119.00;;;18.51;68.02
77351;BME280;66420;50.246;14.320;2023-07-20T00:23:37;99118.13;;;18.47;67.80
77351;BME280;66420;50.246;14.320;2023-07-20T00:26:22;99114.63;;;18.50;67.71
77351;BME280;66420;50.246;14.320;2023-07-20T00:29:07;99113.59;;;18.58;67.41
77351;BME280;66420;50.246;14.320;2023-07-20T00:31:51;99109.50;;;18.52;67.95
77351;BME280;66420;50.246;14.320;2023-07-20T00:34:36;99111.13;;;18.53;67.88
77351;BME280;66420;50.246;14.320;2023-07-20T00:37:21;99108.38;;;18.53;68.09
77351;BME280;66420;50.246;14.320;2023-07-20T00:40:06;99110.69;;;18.51;67.13
77351;BME280;66420;50.246;14.320;2023-07-20T00:42:54;99103.81;;;18.42;68.37
77351;BME280;66420;50.246;14.320;2023-07-20T00:45:39;99109.72;;;18.40;68.42
77351;BME280;66420;50.246;14.320;2023-07-20T00:48:23;99108.72;;;18.29;68.90
77351;BME280;66420;50.246;14.320;2023-07-20T00:51:09;99106.03;;;18.33;69.07
77351;BME280;66420;50.246;14.320;2023-07-20T00:53:54;99118.78;;;18.37;69.14
77351;BME280;66420;50.246;14.320;2023-07-20T00:56:39;99119.88;;;18.33;68.96
77351;BME280;66420;50.246;14.320;2023-07-20T00:59:24;99124.94;;;18.27;69.69
77351;BME280;66420;50.246;14.320;2023-07-20T01:02:08;99128.81;;;18.23;69.81
77351;BME280;66420;50.246;14.320;2023-07-20T01:04:53;99125.75;;;18.05;70.37
77351;BME280;66420;50.246;14.320;2023-07-20T01:07:54;99118.94;;;18.02;69.85
77351;BME280;66420;50.246;14.320;2023-07-20T01:10:41;99128.06;;;18.03;69.54
77351;BME280;66420;50.246;14.320;2023-07-20T01:13:28;99124.94;;;18.04;69.08
77351;BME280;66420;50.246;14.320;2023-07-20T01:16:13;99120.63;;;18.07;69.36
77351;BME280;66420;50.246;14.320;2023-07-20T01:18:57;99125.34;;;18.06;70.06
77351;BME280;66420;50.246;14.320;2023-07-20T01:21:48;99131.19;;;18.01;69.17
77351;BME280;66420;50.246;14.320;2023-07-20T01:25:01;99133.78;;;17.91;70.47
77351;BME280;66420;50.246;14.320;2023-07-20T01:31:08;99140.78;;;17.85;70.83
77351;BME280;66420;50.246;14.320;2023-07-20T01:33:58;99135.69;;;17.87;70.66
77351;BME280;66420;50.246;14.320;2023-07-20T01:36:42;99135.53;;;17.80;70.57
77351;BME280;66420;50.246;14.320;2023-07-20T01:39:29;99131.16;;;17.79;71.04
77351;BME280;66420;50.246;14.320;2023-07-20T01:42:14;99146.91;;;17.75;71.85
77351;BME280;66420;50.246;14.320;2023-07-20T01:44:59;99134.09;;;17.66;71.30
77351;BME280;66420;50.246;14.320;2023-07-20T01:47:43;99134.31;;;17.58;71.96
77351;BME280;66420;50.246;14.320;2023-07-20T01:50:28;99147.63;;;17.52;71.67
77351;BME280;66420;50.246;14.320;2023-07-20T01:53:13;99147.34;;;17.57;71.85
77351;BME280;66420;50.246;14.320;2023-07-20T01:55:57;99149.84;;;17.62;71.20
77351;BME280;66420;50.246;14.320;2023-07-20T01:58:42;99147.63;;;17.52;72.80
77351;BME280;66420;50.246;14.320;2023-07-20T02:01:27;99146.25;;;17.43;72.54
77351;BME280;66420;50.246;14.320;2023-07-20T02:04:12;99141.22;;;17.29;74.14
77351;BME280;66420;50.246;14.320;2023-07-20T02:06:57;99145.59;;;17.30;73.23
77351;BME280;66420;50.246;14.320;2023-07-20T02:09:42;99147.41;;;17.22;73.45
77351;BME280;66420;50.246;14.320;2023-07-20T02:12:27;99144.88;;;17.14;73.59
77351;BME280;66420;50.246;14.320;2023-07-20T02:15:11;99143.88;;;17.06;74.95
77351;BME280;66420;50.246;14.320;2023-07-20T02:17:57;99146.56;;;17.03;74.63
77351;BME280;66420;50.246;14.320;2023-07-20T02:20:42;99152.38;;;16.98;75.55
77351;BME280;66420;50.246;14.320;2023-07-20T02:23:27;99149.28;;;16.99;74.76
77351;BME280;66420;50.246;14.320;2023-07-20T02:26:12;99155.59;;;17.00;74.95
77351;BME280;66420;50.246;14.320;2023-07-20T02:28:56;99150.78;;;16.97;74.60
77351;BME280;66420;50.246;14.320;2023-07-20T02:31:41;99154.81;;;16.99;75.46
77351;BME280;66420;50.246;14.320;2023-07-20T02:34:27;99158.00;;;17.01;74.68
77351;BME280;66420;50.246;14.320;2023-07-20T02:37:14;99151.09;;;17.11;73.87
77351;BME280;66420;50.246;14.320;2023-07-20T02:39:58;99148.78;;;17.13;74.09
77351;BME280;66420;50.246;14.320;2023-07-20T02:42:43;99145.72;;;17.18;74.06
77351;BME280;66420;50.246;14.320;2023-07-20T02:45:27;99150.47;;;17.17;73.68
77351;BME280;66420;50.246;14.320;2023-07-20T02:48:12;99162.03;;;17.23;73.69
77351;BME280;66420;50.246;14.320;2023-07-20T02:50:57;99159.97;;;17.20;74.19
77351;BME280;66420;50.246;14.320;2023-07-20T02:53:42;99160.44;;;17.22;73.91
77351;BME280;66420;50.246;14.320;2023-07-20T02:56:26;99157.59;;;17.18;73.79
77351;BME280;66420;50.246;14.320;2023-07-20T02:59:11;99156.47;;;17.04;73.50
77351;BME280;66420;50.246;14.320;2023-07-20T03:01:56;99161.56;;;17.02;73.94
77351;BME280;66420;50.246;14.320;2023-07-20T03:04:42;99159.53;;;16.99;75.74
77351;BME280;66420;50.246;14.320;2023-07-20T03:07:28;99166.81;;;17.07;74.36
77351;BME280;66420;50.246;14.320;2023-07-20T03:10:13;99172.19;;;17.00;75.86
77351;BME280;66420;50.246;14.320;2023-07-20T03:12:58;99167.38;;;16.97;74.67
77351;BME280;66420;50.246;14.320;2023-07-20T03:15:43;99168.09;;;16.94;74.48
77351;BME280;66420;50.246;14.320;2023-07-20T03:18:27;99173.63;;;16.94;74.23
77351;BME280;66420;50.246;14.320;2023-07-20T03:21:12;99179.88;;;16.91;74.10
77351;BME280;66420;50.246;14.320;2023-07-20T03:23:58;99171.88;;;16.86;74.74
77351;BME280;66420;50.246;14.320;2023-07-20T03:26:43;99174.03;;;16.76;76.63
77351;BME280;66420;50.246;14.320;2023-07-20T03:29:28;99173.56;;;16.74;75.00
77351;BME280;66420;50.246;14.320;2023-07-20T03:32:12;99181.03;;;16.74;76.51
77351;BME280;66420;50.246;14.320;2023-07-20T03:34:57;99186.75;;;16.65;76.98
77351;BME280;66420;50.246;14.320;2023-07-20T03:37:42;99185.41;;;16.59;77.04
77351;BME280;66420;50.246;14.320;2023-07-20T03:40:27;99184.72;;;16.62;76.93
77351;BME280;66420;50.246;14.320;2023-07-20T03:43:12;99185.16;;;16.49;77.86
77351;BME280;66420;50.246;14.320;2023-07-20T03:45:56;99180.97;;;16.39;77.79
77351;BME280;66420;50.246;14.320;2023-07-20T03:48:41;99170.63;;;16.36;77.44
77351;BME280;66420;50.246;14.320;2023-07-20T03:51:26;99181.59;;;16.48;77.39
77351;BME280;66420;50.246;14.320;2023-07-20T03:54:11;99173.72;;;16.50;77.66
77351;BME280;66420;50.246;14.320;2023-07-20T03:56:55;99176.47;;;16.50;77.41
77351;BME280;66420;50.246;14.320;2023-07-20T03:59:44;99174.19;;;16.52;77.29
77351;BME280;66420;50.246;14.320;2023-07-20T04:02:30;99174.75;;;16.58;77.46
77351;BME280;66420;50.246;14.320;2023-07-20T04:05:15;99174.38;;;16.59;76.41
77351;BME280;66420;50.246;14.320;2023-07-20T04:08:00;99172.41;;;16.60;76.97
77351;BME280;66420;50.246;14.320;2023-07-20T04:10:44;99177.94;;;16.75;76.47
77351;BME280;66420;50.246;14.320;2023-07-20T04:13:30;99174.97;;;16.84;77.04
77351;BME280;66420;50.246;14.320;2023-07-20T04:16:17;99179.44;;;16.89;76.72
77351;BME280;66420;50.246;14.320;2023-07-20T04:19:04;99183.88;;;16.93;76.03
77351;BME280;66420;50.246;14.320;2023-07-20T04:21:48;99189.31;;;16.90;75.71
77351;BME280;66420;50.246;14.320;2023-07-20T04:24:33;99196.47;;;16.91;76.06
77351;BME280;66420;50.246;14.320;2023-07-20T04:27:18;99196.53;;;16.94;75.96
77351;BME280;66420;50.246;14.320;2023-07-20T04:30:04;99204.56;;;16.99;76.33
77351;BME280;66420;50.246;14.320;2023-07-20T04:32:49;99200.44;;;17.09;74.85
77351;BME280;66420;50.246;14.320;2023-07-20T04:38:31;99197.81;;;17.16;74.55
77351;BME280;66420;50.246;14.320;2023-07-20T04:41:16;99211.38;;;17.21;75.08
77351;BME280;66420;50.246;14.320;2023-07-20T04:44:01;99210.16;;;17.18;74.86
77351;BME280;66420;50.246;14.320;2023-07-20T04:46:45;99208.97;;;17.19;74.84
77351;BME280;66420;50.246;14.320;2023-07-20T04:49:31;99202.94;;;17.33;74.81
77351;BME280;66420;50.246;14.320;2023-07-20T04:52:15;99208.47;;;17.33;74.71
77351;BME280;66420;50.246;14.320;2023-07-20T04:55:00;99206.31;;;17.42;73.57
77351;BME280;66420;50.246;14.320;2023-07-20T04:57:45;99216.81;;;17.52;73.74
77351;BME280;66420;50.246;14.320;2023-07-20T05:00:30;99203.59;;;17.61;73.61
77351;BME280;66420;50.246;14.320;2023-07-20T05:03:15;99205.00;;;17.55;73.34
77351;BME280;66420;50.246;14.320;2023-07-20T05:06:01;99205.94;;;17.59;73.92
77351;BME280;66420;50.246;14.320;2023-07-20T05:08:46;99210.00;;;17.65;73.78
77351;BME280;66420;50.246;14.320;2023-07-20T05:11:30;99210.66;;;17.78;73.44
77351;BME280;66420;50.246;14.320;2023-07-20T05:14:15;99205.84;;;17.75;73.85
77351;BME280;66420;50.246;14.320;2023-07-20T05:17:00;99218.16;;;17.78;73.19
77351;BME280;66420;50.246;14.320;2023-07-20T05:19:45;99212.34;;;17.63;73.16
77351;BME280;66420;50.246;14.320;2023-07-20T05:22:30;99223.53;;;17.70;73.71
77351;BME280;66420;50.246;14.320;2023-07-20T05:25:15;99203.00;;;17.91;72.62
77351;BME280;66420;50.246;14.320;2023-07-20T05:28:02;99216.03;;;17.90;73.32
77351;BME280;66420;50.246;14.320;2023-07-20T05:30:47;99210.47;;;18.09;72.37
77351;BME280;66420;50.246;14.320;2023-07-20T05:33:32;99211.72;;;18.12;71.75
77351;BME280;66420;50.246;14.320;2023-07-20T05:36:17;99204.75;;;18.22;71.90
77351;BME280;66420;50.246;14.320;2023-07-20T05:39:02;99207.00;;;18.35;71.10
77351;BME280;66420;50.246;14.320;2023-07-20T05:41:46;99216.31;;;18.46;70.68
77351;BME280;66420;50.246;14.320;2023-07-20T05:44:31;99213.09;;;18.44;69.99
77351;BME280;66420;50.246;14.320;2023-07-20T05:47:16;99218.06;;;18.54;69.12
77351;BME280;66420;50.246;14.320;2023-07-20T05:50:01;99218.66;;;18.67;68.94
77351;BME280;66420;50.246;14.320;2023-07-20T05:52:45;99218.34;;;18.72;68.38
77351;BME280;66420;50.246;14.320;2023-07-20T05:55:31;99214.56;;;18.84;68.42
77351;BME280;66420;50.246;14.320;2023-07-20T05:58:16;99215.63;;;18.76;67.28
77351;BME280;66420;50.246;14.320;2023-07-20T06:01:00;99219.44;;;18.90;67.25
77351;BME280;66420;50.246;14.320;2023-07-20T06:03:47;99227.00;;;18.93;67.28
77351;BME280;66420;50.246;14.320;2023-07-20T06:06:31;99224.09;;;18.83;68.10
77351;BME280;66420;50.246;14.320;2023-07-20T06:09:16;99227.97;;;18.78;67.58
77351;BME280;66420;50.246;14.320;2023-07-20T06:12:00;99233.97;;;18.84;67.98
77351;BME280;66420;50.246;14.320;2023-07-20T06:14:46;99237.09;;;18.79;67.31
77351;BME280;66420;50.246;14.320;2023-07-20T06:17:30;99239.13;;;18.59;67.59
77351;BME280;66420;50.246;14.320;2023-07-20T06:20:15;99238.91;;;18.71;67.53
77351;BME280;66420;50.246;14.320;2023-07-20T06:23:00;99233.13;;;18.80;67.98
77351;BME280;66420;50.246;14.320;2023-07-20T06:25:45;99228.25;;;18.96;66.80
77351;BME280;66420;50.246;14.320;2023-07-20T06:28:30;99239.50;;;19.07;67.48
77351;BME280;66420;50.246;14.320;2023-07-20T06:31:16;99233.22;;;19.10;64.82
77351;BME280;66420;50.246;14.320;2023-07-20T06:34:01;99239.66;;;19.17;65.96
77351;BME280;66420;50.246;14.320;2023-07-20T06:36:47;99229.81;;;19.20;64.35
77351;BME280;66420;50.246;14.320;2023-07-20T06:39:31;99233.47;;;19.27;64.12
77351;BME280;66420;50.246;14.320;2023-07-20T06:42:16;99235.13;;;19.32;65.13
77351;BME280;66420;50.246;14.320;2023-07-20T06:45:01;99229.53;;;19.28;64.18
77351;BME280;66420;50.246;14.320;2023-07-20T06:47:46;99225.63;;;19.33;64.59
77351;BME280;66420;50.246;14.320;2023-07-20T06:50:30;99223.75;;;19.40;63.88
77351;BME280;66420;50.246;14.320;2023-07-20T06:53:15;99230.44;;;19.36;64.44
77351;BME280;66420;50.246;14.320;2023-07-20T06:55:59;99227.91;;;19.54;64.77
77351;BME280;66420;50.246;14.320;2023-07-20T06:58:44;99220.88;;;19.60;62.67
77351;BME280;66420;50.246;14.320;2023-07-20T07:01:29;99235.56;;;19.60;63.82
77351;BME280;66420;50.246;14.320;2023-07-20T07:04:15;99225.28;;;19.64;63.74
77351;BME280;66420;50.246;14.320;2023-07-20T07:06:59;99230.69;;;19.83;63.68
77351;BME280;66420;50.246;14.320;2023-07-20T07:09:44;99233.38;;;20.10;62.83
77351;BME280;66420;50.246;14.320;2023-07-20T07:12:29;99235.66;;;20.34;62.56
77351;BME280;66420;50.246;14.320;2023-07-20T07:15:13;99235.59;;;20.30;62.76
77351;BME280;66420;50.246;14.320;2023-07-20T07:17:58;99236.41;;;20.31;62.11
77351;BME280;66420;50.246;14.320;2023-07-20T07:20:50;99236.66;;;20.52;61.77
77351;BME280;66420;50.246;14.320;2023-07-20T07:23:35;99252.53;;;20.52;61.44
77351;BME280;66420;50.246;14.320;2023-07-20T07:26:20;99250.38;;;20.78;60.92
77351;BME280;66420;50.246;14.320;2023-07-20T07:29:05;99237.56;;;20.67;60.42
77351;BME280;66420;50.246;14.320;2023-07-20T07:31:51;99241.47;;;20.59;60.45
77351;BME280;66420;50.246;14.320;2023-07-20T07:34:35;99242.63;;;20.58;61.50
77351;BME280;66420;50.246;14.320;2023-07-20T07:37:20;99234.25;;;20.54;60.55
77351;BME280;66420;50.246;14.320;2023-07-20T07:40:06;99245.31;;;20.44;60.13
77351;BME280;66420;50.246;14.320;2023-07-20T07:42:51;99252.03;;;20.43;60.52
77351;BME280;66420;50.246;14.320;2023-07-20T07:45:36;99254.03;;;20.46;60.59
77351;BME280;66420;50.246;14.320;2023-07-20T07:48:22;99257.75;;;20.57;59.61
77351;BME280;66420;50.246;14.320;2023-07-20T07:51:06;99253.72;;;20.54;59.00
77351;BME280;66420;50.246;14.320;2023-07-20T07:53:51;99252.88;;;20.47;60.08
77351;BME280;66420;50.246;14.320;2023-07-20T07:56:36;99256.66;;;20.31;59.41
77351;BME280;66420;50.246;14.320;2023-07-20T07:59:21;99251.72;;;20.51;58.42
77351;BME280;66420;50.246;14.320;2023-07-20T08:02:05;99260.91;;;20.55;59.27
77351;BME280;66420;50.246;14.320;2023-07-20T08:04:50;99247.97;;;20.77;57.72
77351;BME280;66420;50.246;14.320;2023-07-20T08:07:36;99248.09;;;20.91;57.60
77351;BME280;66420;50.246;14.320;2023-07-20T08:10:21;99252.06;;;20.90;58.04
77351;BME280;66420;50.246;14.320;2023-07-20T08:13:06;99248.16;;;20.98;57.35
77351;BME280;66420;50.246;14.320;2023-07-20T08:15:51;99256.91;;;20.97;56.86
77351;BME280;66420;50.246;14.320;2023-07-20T08:18:36;99247.28;;;20.87;56.49
77351;BME280;66420;50.246;14.320;2023-07-20T08:21:21;99256.22;;;21.10;56.92
77351;BME280;66420;50.246;14.320;2023-07-20T08:24:06;99260.38;;;21.31;55.38
77351;BME280;66420;50.246;14.320;2023-07-20T08:26:51;99254.13;;;21.51;55.47
77351;BME280;66420;50.246;14.320;2023-07-20T08:29:36;99269.47;;;21.28;56.21
77351;BME280;66420;50.246;14.320;2023-07-20T08:32:22;99270.59;;;21.16;57.18
77351;BME280;66420;50.246;14.320;2023-07-20T08:35:07;99264.72;;;21.32;55.42
77351;BME280;66420;50.246;14.320;2023-07-20T08:37:55;99265.84;;;21.20;56.08
77351;BME280;66420;50.246;14.320;2023-07-20T08:40:41;99269.75;;;21.12;56.03
77351;BME280;66420;50.246;14.320;2023-07-20T08:43:27;99267.91;;;20.86;55.88
77351;BME280;66420;50.246;14.320;2023-07-20T08:46:12;99268.13;;;21.11;57.56
77351;BME280;66420;50.246;14.320;2023-07-20T08:48:59;99264.81;;;20.95;56.50
77351;BME280;66420;50.246;14.320;2023-07-20T08:51:45;99256.38;;;21.32;55.80
77351;BME280;66420;50.246;14.320;2023-07-20T08:54:31;99250.91;;;21.46;55.21
77351;BME280;66420;50.246;14.320;2023-07-20T08:57:21;99246.31;;;21.78;55.15
77351;BME280;66420;50.246;14.320;2023-07-20T09:00:07;99248.81;;;21.97;53.66
77351;BME280;66420;50.246;14.320;2023-07-20T09:02:57;99247.09;;;21.79;54.87
77351;BME280;66420;50.246;14.320;2023-07-20T09:05:42;99241.97;;;21.84;52.42
77351;BME280;66420;50.246;14.320;2023-07-20T09:08:27;99243.78;;;22.52;53.26
77351;BME280;66420;50.246;14.320;2023-07-20T09:11:12;99235.47;;;22.77;49.70
77351;BME280;66420;50.246;14.320;2023-07-20T09:14:05;99237.03;;;22.57;49.39
77351;BME280;66420;50.246;14.320;2023-07-20T09:16:54;99233.09;;;22.90;48.46
77351;BME280;66420;50.246;14.320;2023-07-20T09:19:45;99237.84;;;23.18;49.24
77351;BME280;66420;50.246;14.320;2023-07-20T09:22:30;99239.88;;;22.85;48.58
77351;BME280;66420;50.246;14.320;2023-07-20T09:25:17;99238.59;;;22.44;49.75
77351;BME280;66420;50.246;14.320;2023-07-20T09:28:02;99232.22;;;22.50;49.23
77351;BME280;66420;50.246;14.320;2023-07-20T09:30:48;99232.25;;;22.54;48.67
77351;BME280;66420;50.246;14.320;2023-07-20T09:33:33;99235.41;;;22.56;48.05
77351;BME280;66420;50.246;14.320;2023-07-20T09:36:17;99231.41;;;22.43;48.16
77351;BME280;66420;50.246;14.320;2023-07-20T09:39:03;99238.97;;;22.39;48.20
77351;BME280;66420;50.246;14.320;2023-07-20T09:41:49;99249.78;;;22.58;49.50
77351;BME280;66420;50.246;14.320;2023-07-20T09:44:35;99237.84;;;22.68;49.76
77351;BME280;66420;50.246;14.320;2023-07-20T09:47:24;99242.56;;;22.39;48.98
77351;BME280;66420;50.246;14.320;2023-07-20T09:50:09;99248.53;;;22.34;49.86
77351;BME280;66420;50.246;14.320;2023-07-20T09:52:58;99261.63;;;22.20;50.34
77351;BME280;66420;50.246;14.320;2023-07-20T09:55:45;99256.44;;;22.15;51.38
77351;BME280;66420;50.246;14.320;2023-07-20T09:58:31;99255.63;;;22.10;51.29
77351;BME280;66420;50.246;14.320;2023-07-20T10:01:20;99249.28;;;22.21;50.99
77351;BME280;66420;50.246;14.320;2023-07-20T10:04:07;99253.25;;;22.20;50.79
77351;BME280;66420;50.246;14.320;2023-07-20T10:06:54;99248.81;;;22.04;49.24
77351;BME280;66420;50.246;14.320;2023-07-20T10:09:41;99249.19;;;21.96;50.24
77351;BME280;66420;50.246;14.320;2023-07-20T10:12:27;99256.84;;;22.17;49.53
77351;BME280;66420;50.246;14.320;2023-07-20T10:15:28;99248.56;;;22.48;50.04
77351;BME280;66420;50.246;14.320;2023-07-20T10:21:40;99246.63;;;22.84;50.02
77351;BME280;66420;50.246;14.320;2023-07-20T10:24:27;99243.03;;;22.73;47.21
77351;BME280;66420;50.246;14.320;2023-07-20T10:27:13;99247.78;;;22.66;46.71
77351;BME280;66420;50.246;14.320;2023-07-20T10:29:58;99241.03;;;22.63;48.23
77351;BME280;66420;50.246;14.320;2023-07-20T10:32:45;99251.31;;;22.31;46.23
77351;BME280;66420;50.246;14.320;2023-07-20T10:35:30;99244.50;;;22.18;47.44
77351;BME280;66420;50.246;14.320;2023-07-20T10:38:15;99239.31;;;22.20;47.06
77351;BME280;66420;50.246;14.320;2023-07-20T10:41:00;99241.38;;;22.44;47.08
77351;BME280;66420;50.246;14.320;2023-07-20T10:43:45;99244.16;;;22.40;46.05
77351;BME280;66420;50.246;14.320;2023-07-20T10:46:48;99243.41;;;22.58;48.65
77351;BME280;66420;50.246;14.320;2023-07-20T10:49:34;99240.22;;;22.59;46.43
77351;BME280;66420;50.246;14.320;2023-07-20T10:52:19;99241.78;;;22.60;47.17
77351;BME280;66420;50.246;14.320;2023-07-20T10:55:31;99237.88;;;22.86;45.81
77351;BME280;66420;50.246;14.320;2023-07-20T10:58:16;99240.63;;;23.32;47.05
77351;BME280;66420;50.246;14.320;2023-07-20T11:01:02;99227.72;;;23.88;47.34
77351;BME280;66420;50.246;14.320;2023-07-20T11:03:51;99220.34;;;24.29;46.22
77351;BME280;66420;50.246;14.320;2023-07-20T11:06:36;99215.09;;;24.42;43.41
77351;BME280;66420;50.246;14.320;2023-07-20T11:09:23;99222.22;;;24.50;43.54
77351;BME280;66420;50.246;14.320;2023-07-20T11:14:57;99223.38;;;23.72;41.64
77351;BME280;66420;50.246;14.320;2023-07-20T11:17:42;99211.38;;;23.79;42.19
77351;BME280;66420;50.246;14.320;2023-07-20T11:20:27;99219.34;;;23.84;43.49
77351;BME280;66420;50.246;14.320;2023-07-20T11:23:11;99216.16;;;23.85;42.44
77351;BME280;66420;50.246;14.320;2023-07-20T11:25:56;99213.66;;;24.02;42.37
77351;BME280;66420;50.246;14.320;2023-07-20T11:28:40;99206.84;;;24.72;42.08
77351;BME280;66420;50.246;14.320;2023-07-20T11:31:26;99199.16;;;24.87;41.75
77351;BME280;66420;50.246;14.320;2023-07-20T11:34:18;99205.59;;;24.21;41.52
77351;BME280;66420;50.246;14.320;2023-07-20T11:37:05;99204.06;;;24.10;42.48
77351;BME280;66420;50.246;14.320;2023-07-20T11:39:55;99210.47;;;24.03;41.11
77351;BME280;66420;50.246;14.320;2023-07-20T11:42:40;99206.44;;;24.08;40.28
77351;BME280;66420;50.246;14.320;2023-07-20T11:45:25;99198.25;;;24.45;38.38
77351;BME280;66420;50.246;14.320;2023-07-20T11:48:17;99190.78;;;24.80;38.81
77351;BME280;66420;50.246;14.320;2023-07-20T11:51:02;99186.16;;;24.59;38.60
77351;BME280;66420;50.246;14.320;2023-07-20T11:53:47;99186.31;;;24.93;39.21
77351;BME280;66420;50.246;14.320;2023-07-20T11:56:31;99177.16;;;25.26;39.89
77351;BME280;66420;50.246;14.320;2023-07-20T11:59:18;99170.97;;;25.08;38.39
77351;BME280;66420;50.246;14.320;2023-07-20T12:02:03;99178.75;;;24.90;38.95
77351;BME280;66420;50.246;14.320;2023-07-20T12:04:50;99176.63;;;24.56;39.86
77351;BME280;66420;50.246;14.320;2023-07-20T12:07:36;99177.16;;;24.34;40.46
77351;BME280;66420;50.246;14.320;2023-07-20T12:10:26;99189.38;;;23.92;40.93
77351;BME280;66420;50.246;14.320;2023-07-20T12:13:11;99186.28;;;23.68;40.88
77351;BME280;66420;50.246;14.320;2023-07-20T12:15:56;99190.56;;;23.94;41.53
77351;BME280;66420;50.246;14.320;2023-07-20T12:18:42;99177.72;;;24.04;42.32
77351;BME280;66420;50.246;14.320;2023-07-20T12:21:28;99181.66;;;24.13;40.57
77351;BME280;66420;50.246;14.320;2023-07-20T12:24:13;99168.94;;;24.02;41.75
77351;BME280;66420;50.246;14.320;2023-07-20T12:26:57;99176.03;;;24.24;40.57
77351;BME280;66420;50.246;14.320;2023-07-20T12:29:43;99166.22;;;24.53;40.34
77351;BME280;66420;50.246;14.320;2023-07-20T12:32:27;99180.94;;;24.64;39.15
77351;BME280;66420;50.246;14.320;2023-07-20T12:35:12;99172.66;;;24.50;39.58
77351;BME280;66420;50.246;14.320;2023-07-20T12:37:58;99172.53;;;24.64;39.87
77351;BME280;66420;50.246;14.320;2023-07-20T12:40:43;99178.25;;;24.50;39.30
77351;BME280;66420;50.246;14.320;2023-07-20T12:43:28;99173.13;;;24.38;39.04
77351;BME280;66420;50.246;14.320;2023-07-20T12:46:13;99175.25;;;24.23;39.66
77351;BME280;66420;50.246;14.320;2023-07-20T12:48:58;99184.75;;;24.37;40.39
77351;BME280;66420;50.246;14.320;2023-07-20T12:51:43;99179.94;;;24.37;37.22
77351;BME280;66420;50.246;14.320;2023-07-20T12:54:27;99175.56;;;24.36;37.49
77351;BME280;66420;50.246;14.320;2023-07-20T12:57:12;99172.03;;;24.77;38.77
77351;BME280;66420;50.246;14.320;2023-07-20T12:59:56;99165.22;;;24.78;37.33
77351;BME280;66420;50.246;14.320;2023-07-20T13:02:41;99169.75;;;25.09;38.26
77351;BME280;66420;50.246;14.320;2023-07-20T13:05:26;99166.16;;;25.08;36.54
77351;BME280;66420;50.246;14.320;2023-07-20T13:08:11;99166.81;;;24.79;38.45
77351;BME280;66420;50.246;14.320;2023-07-20T13:10:56;99162.03;;;24.76;39.20
77351;BME280;66420;50.246;14.320;2023-07-20T13:13:41;99159.13;;;24.90;39.38
77351;BME280;66420;50.246;14.320;2023-07-20T13:16:25;99148.94;;;25.10;36.66
77351;BME280;66420;50.246;14.320;2023-07-20T13:19:11;99165.44;;;25.01;36.52
77351;BME280;66420;50.246;14.320;2023-07-20T13:21:55;99162.25;;;25.36;38.67
77351;BME280;66420;50.246;14.320;2023-07-20T13:24:41;99156.88;;;25.56;37.57
77351;BME280;66420;50.246;14.320;2023-07-20T13:27:25;99161.41;;;25.43;36.40
77351;BME280;66420;50.246;14.320;2023-07-20T13:30:10;99163.75;;;25.44;35.45
77351;BME280;66420;50.246;14.320;2023-07-20T13:33:01;99169.44;;;25.75;35.59
77351;BME280;66420;50.246;14.320;2023-07-20T13:35:46;99169.69;;;25.16;33.42
77351;BME280;66420;50.246;14.320;2023-07-20T13:38:31;99172.06;;;25.17;34.91
77351;BME280;66420;50.246;14.320;2023-07-20T13:41:16;99164.91;;;25.13;35.67
77351;BME280;66420;50.246;14.320;2023-07-20T13:44:00;99165.81;;;25.03;34.22
77351;BME280;66420;50.246;14.320;2023-07-20T13:46:45;99162.47;;;25.19;35.72
77351;BME280;66420;50.246;14.320;2023-07-20T13:49:30;99147.91;;;25.34;34.65
77351;BME280;66420;50.246;14.320;2023-07-20T13:52:15;99144.81;;;25.59;35.10
77351;BME280;66420;50.246;14.320;2023-07-20T13:55:00;99150.56;;;25.79;35.27
77351;BME280;66420;50.246;14.320;2023-07-20T13:57:44;99143.38;;;25.78;35.50
77351;BME280;66420;50.246;14.320;2023-07-20T14:00:29;99134.84;;;25.54;35.00
77351;BME280;66420;50.246;14.320;2023-07-20T14:03:17;99145.72;;;25.11;35.31
77351;BME280;66420;50.246;14.320;2023-07-20T14:06:02;99142.19;;;25.04;36.22
77351;BME280;66420;50.246;14.320;2023-07-20T14:08:46;99138.19;;;25.42;36.73
77351;BME280;66420;50.246;14.320;2023-07-20T14:11:32;99137.75;;;25.78;35.54
77351;BME280;66420;50.246;14.320;2023-07-20T14:14:16;99128.78;;;25.90;36.49
77351;BME280;66420;50.246;14.320;2023-07-20T14:17:01;99128.47;;;26.11;34.99
77351;BME280;66420;50.246;14.320;2023-07-20T14:19:45;99132.66;;;25.99;35.88
77351;BME280;66420;50.246;14.320;2023-07-20T14:22:30;99138.78;;;26.18;34.60
77351;BME280;66420;50.246;14.320;2023-07-20T14:25:14;99144.53;;;25.46;35.11
77351;BME280;66420;50.246;14.320;2023-07-20T14:27:59;99136.75;;;25.27;35.85
77351;BME280;66420;50.246;14.320;2023-07-20T14:30:44;99153.03;;;25.02;36.51
77351;BME280;66420;50.246;14.320;2023-07-20T14:33:28;99173.72;;;25.11;37.69
77351;BME280;66420;50.246;14.320;2023-07-20T14:36:13;99199.25;;;25.21;37.77
77351;BME280;66420;50.246;14.320;2023-07-20T14:38:58;99189.31;;;24.68;41.74